<?xml version="1.0" encoding="UTF-8" standalone="no" ?>
<gpx xmlns="http://www.topografix.com/GPX/1/1" xmlns:xsi="http://www.w3.org/2001/XMLSchema-instance" xsi:schemaLocation="http://www.topografix.com/GPX/1/1 http://www.topografix.com/GPX/1/1/gpx.xsd" version="1.1" creator="VisuGPX - https://www.visugpx.com">
  <metadata>
    <name>Getigne_Autour10-22km</name>
    <desc><![CDATA[gnerando idor: 7899428_7903072_7903246_9380870]]></desc>
  </metadata>
  <trk>
    <name><![CDATA[Getigne_VieuxCheminRoyal_10km-7899428]]></name>
    <extensions>
      <line xmlns="http://www.topografix.com/GPX/gpx_style/0/2">
        <color>FF0000</color>
        <width>4</width>
      </line>
    </extensions>
    <trkseg>
      <trkpt lat="47.07227" lon="-1.25011">
        <ele>27</ele>
        <time>2023-11-01T19:02:46Z</time>
      </trkpt>
      <trkpt lat="47.07237" lon="-1.24998">
        <ele>27</ele>
        <time>2023-11-01T19:03:04Z</time>
      </trkpt>
      <trkpt lat="47.07239" lon="-1.24974">
        <ele>29</ele>
        <time>2023-11-01T19:03:26Z</time>
      </trkpt>
      <trkpt lat="47.07255" lon="-1.24925">
        <ele>32</ele>
        <time>2023-11-01T19:04:15Z</time>
      </trkpt>
      <trkpt lat="47.07174" lon="-1.24875">
        <ele>32</ele>
        <time>2023-11-01T19:06:12Z</time>
      </trkpt>
      <trkpt lat="47.07129" lon="-1.24751">
        <ele>32</ele>
        <time>2023-11-01T19:08:20Z</time>
      </trkpt>
      <trkpt lat="47.07104" lon="-1.24687">
        <ele>33</ele>
        <time>2023-11-01T19:09:27Z</time>
      </trkpt>
      <trkpt lat="47.07073" lon="-1.24658">
        <ele>32</ele>
        <time>2023-11-01T19:10:16Z</time>
      </trkpt>
      <trkpt lat="47.07008" lon="-1.24644">
        <ele>32</ele>
        <time>2023-11-01T19:11:44Z</time>
      </trkpt>
      <trkpt lat="47.06951" lon="-1.24636">
        <ele>29</ele>
        <time>2023-11-01T19:13:00Z</time>
      </trkpt>
      <trkpt lat="47.07005" lon="-1.24498">
        <ele>35</ele>
        <time>2023-11-01T19:15:25Z</time>
      </trkpt>
      <trkpt lat="47.07041" lon="-1.2441">
        <ele>38</ele>
        <time>2023-11-01T19:16:58Z</time>
      </trkpt>
      <trkpt lat="47.07081" lon="-1.24325">
        <ele>42</ele>
        <time>2023-11-01T19:18:32Z</time>
      </trkpt>
      <trkpt lat="47.07101" lon="-1.24269">
        <ele>42</ele>
        <time>2023-11-01T19:19:30Z</time>
      </trkpt>
      <trkpt lat="47.07136" lon="-1.24243">
        <ele>41</ele>
        <time>2023-11-01T19:20:22Z</time>
      </trkpt>
      <trkpt lat="47.07085" lon="-1.24166">
        <ele>41</ele>
        <time>2023-11-01T19:22:00Z</time>
      </trkpt>
      <trkpt lat="47.0703" lon="-1.24043">
        <ele>38</ele>
        <time>2023-11-01T19:24:13Z</time>
      </trkpt>
      <trkpt lat="47.06992" lon="-1.23983">
        <ele>35</ele>
        <time>2023-11-01T19:25:28Z</time>
      </trkpt>
      <trkpt lat="47.06977" lon="-1.23946">
        <ele>33</ele>
        <time>2023-11-01T19:26:07Z</time>
      </trkpt>
      <trkpt lat="47.06966" lon="-1.23889">
        <ele>32</ele>
        <time>2023-11-01T19:27:01Z</time>
      </trkpt>
      <trkpt lat="47.06958" lon="-1.23875">
        <ele>32</ele>
        <time>2023-11-01T19:27:17Z</time>
      </trkpt>
      <trkpt lat="47.0694" lon="-1.23868">
        <ele>31</ele>
        <time>2023-11-01T19:27:42Z</time>
      </trkpt>
      <trkpt lat="47.06924" lon="-1.23857">
        <ele>31</ele>
        <time>2023-11-01T19:28:06Z</time>
      </trkpt>
      <trkpt lat="47.06905" lon="-1.23809">
        <ele>32</ele>
        <time>2023-11-01T19:28:56Z</time>
      </trkpt>
      <trkpt lat="47.0689" lon="-1.23759">
        <ele>34</ele>
        <time>2023-11-01T19:29:46Z</time>
      </trkpt>
      <trkpt lat="47.06875" lon="-1.23727">
        <ele>34</ele>
        <time>2023-11-01T19:30:21Z</time>
      </trkpt>
      <trkpt lat="47.0685" lon="-1.23677">
        <ele>36</ele>
        <time>2023-11-01T19:31:18Z</time>
      </trkpt>
      <trkpt lat="47.06816" lon="-1.23636">
        <ele>36</ele>
        <time>2023-11-01T19:32:16Z</time>
      </trkpt>
      <trkpt lat="47.06781" lon="-1.23589">
        <ele>34</ele>
        <time>2023-11-01T19:33:20Z</time>
      </trkpt>
      <trkpt lat="47.0674" lon="-1.23514">
        <ele>31</ele>
        <time>2023-11-01T19:34:47Z</time>
      </trkpt>
      <trkpt lat="47.06711" lon="-1.23475">
        <ele>31</ele>
        <time>2023-11-01T19:35:40Z</time>
      </trkpt>
      <trkpt lat="47.0669" lon="-1.23444">
        <ele>31</ele>
        <time>2023-11-01T19:36:19Z</time>
      </trkpt>
      <trkpt lat="47.06677" lon="-1.23398">
        <ele>31</ele>
        <time>2023-11-01T19:37:05Z</time>
      </trkpt>
      <trkpt lat="47.06661" lon="-1.23303">
        <ele>32</ele>
        <time>2023-11-01T19:38:34Z</time>
      </trkpt>
      <trkpt lat="47.06657" lon="-1.23282">
        <ele>32</ele>
        <time>2023-11-01T19:38:53Z</time>
      </trkpt>
      <trkpt lat="47.06646" lon="-1.23247">
        <ele>33</ele>
        <time>2023-11-01T19:39:28Z</time>
      </trkpt>
      <trkpt lat="47.06628" lon="-1.23209">
        <ele>33</ele>
        <time>2023-11-01T19:40:10Z</time>
      </trkpt>
      <trkpt lat="47.06623" lon="-1.23171">
        <ele>33</ele>
        <time>2023-11-01T19:40:46Z</time>
      </trkpt>
      <trkpt lat="47.06625" lon="-1.23105">
        <ele>33</ele>
        <time>2023-11-01T19:41:46Z</time>
      </trkpt>
      <trkpt lat="47.0662" lon="-1.23102">
        <ele>33</ele>
        <time>2023-11-01T19:41:53Z</time>
      </trkpt>
      <trkpt lat="47.0661" lon="-1.23029">
        <ele>36</ele>
        <time>2023-11-01T19:43:01Z</time>
      </trkpt>
      <trkpt lat="47.06603" lon="-1.22992">
        <ele>39</ele>
        <time>2023-11-01T19:43:35Z</time>
      </trkpt>
      <trkpt lat="47.06588" lon="-1.22991">
        <ele>39</ele>
        <time>2023-11-01T19:43:56Z</time>
      </trkpt>
      <trkpt lat="47.06546" lon="-1.2305">
        <ele>35</ele>
        <time>2023-11-01T19:45:13Z</time>
      </trkpt>
      <trkpt lat="47.06523" lon="-1.23053">
        <ele>35</ele>
        <time>2023-11-01T19:45:44Z</time>
      </trkpt>
      <trkpt lat="47.06477" lon="-1.23026">
        <ele>37</ele>
        <time>2023-11-01T19:46:50Z</time>
      </trkpt>
      <trkpt lat="47.06421" lon="-1.23002">
        <ele>35</ele>
        <time>2023-11-01T19:48:08Z</time>
      </trkpt>
      <trkpt lat="47.06381" lon="-1.22934">
        <ele>36</ele>
        <time>2023-11-01T19:49:30Z</time>
      </trkpt>
      <trkpt lat="47.06328" lon="-1.22872">
        <ele>33</ele>
        <time>2023-11-01T19:51:00Z</time>
      </trkpt>
      <trkpt lat="47.06283" lon="-1.22818">
        <ele>33</ele>
        <time>2023-11-01T19:52:18Z</time>
      </trkpt>
      <trkpt lat="47.06239" lon="-1.22741">
        <ele>33</ele>
        <time>2023-11-01T19:53:49Z</time>
      </trkpt>
      <trkpt lat="47.06225" lon="-1.22707">
        <ele>35</ele>
        <time>2023-11-01T19:54:25Z</time>
      </trkpt>
      <trkpt lat="47.06223" lon="-1.22681">
        <ele>36</ele>
        <time>2023-11-01T19:54:49Z</time>
      </trkpt>
      <trkpt lat="47.06211" lon="-1.22659">
        <ele>35</ele>
        <time>2023-11-01T19:55:14Z</time>
      </trkpt>
      <trkpt lat="47.06203" lon="-1.22657">
        <ele>34</ele>
        <time>2023-11-01T19:55:25Z</time>
      </trkpt>
      <trkpt lat="47.06185" lon="-1.2264">
        <ele>33</ele>
        <time>2023-11-01T19:55:54Z</time>
      </trkpt>
      <trkpt lat="47.06172" lon="-1.22621">
        <ele>32</ele>
        <time>2023-11-01T19:56:18Z</time>
      </trkpt>
      <trkpt lat="47.06132" lon="-1.22548">
        <ele>35</ele>
        <time>2023-11-01T19:57:43Z</time>
      </trkpt>
      <trkpt lat="47.061" lon="-1.22475">
        <ele>35</ele>
        <time>2023-11-01T19:59:02Z</time>
      </trkpt>
      <trkpt lat="47.06075" lon="-1.22414">
        <ele>36</ele>
        <time>2023-11-01T20:00:07Z</time>
      </trkpt>
      <trkpt lat="47.06059" lon="-1.22397">
        <ele>36</ele>
        <time>2023-11-01T20:00:33Z</time>
      </trkpt>
      <trkpt lat="47.06028" lon="-1.22377">
        <ele>35</ele>
        <time>2023-11-01T20:01:19Z</time>
      </trkpt>
      <trkpt lat="47.06002" lon="-1.2237">
        <ele>34</ele>
        <time>2023-11-01T20:01:54Z</time>
      </trkpt>
      <trkpt lat="47.05982" lon="-1.22369">
        <ele>34</ele>
        <time>2023-11-01T20:02:21Z</time>
      </trkpt>
      <trkpt lat="47.05986" lon="-1.22315">
        <ele>40</ele>
        <time>2023-11-01T20:03:10Z</time>
      </trkpt>
      <trkpt lat="47.05994" lon="-1.22252">
        <ele>48</ele>
        <time>2023-11-01T20:04:08Z</time>
      </trkpt>
      <trkpt lat="47.05987" lon="-1.22211">
        <ele>49</ele>
        <time>2023-11-01T20:04:47Z</time>
      </trkpt>
      <trkpt lat="47.05973" lon="-1.22196">
        <ele>49</ele>
        <time>2023-11-01T20:05:10Z</time>
      </trkpt>
      <trkpt lat="47.0595" lon="-1.2219">
        <ele>50</ele>
        <time>2023-11-01T20:05:41Z</time>
      </trkpt>
      <trkpt lat="47.05849" lon="-1.22148">
        <ele>52</ele>
        <time>2023-11-01T20:08:01Z</time>
      </trkpt>
      <trkpt lat="47.05782" lon="-1.22099">
        <ele>50</ele>
        <time>2023-11-01T20:09:41Z</time>
      </trkpt>
      <trkpt lat="47.05755" lon="-1.22041">
        <ele>51</ele>
        <time>2023-11-01T20:10:45Z</time>
      </trkpt>
      <trkpt lat="47.05738" lon="-1.22014">
        <ele>51</ele>
        <time>2023-11-01T20:11:18Z</time>
      </trkpt>
      <trkpt lat="47.05724" lon="-1.2197">
        <ele>52</ele>
        <time>2023-11-01T20:12:02Z</time>
      </trkpt>
      <trkpt lat="47.05717" lon="-1.21892">
        <ele>53</ele>
        <time>2023-11-01T20:13:14Z</time>
      </trkpt>
      <trkpt lat="47.05689" lon="-1.21752">
        <ele>55</ele>
        <time>2023-11-01T20:15:27Z</time>
      </trkpt>
      <trkpt lat="47.05671" lon="-1.21641">
        <ele>56</ele>
        <time>2023-11-01T20:17:10Z</time>
      </trkpt>
      <trkpt lat="47.05669" lon="-1.21583">
        <ele>53</ele>
        <time>2023-11-01T20:18:03Z</time>
      </trkpt>
      <trkpt lat="47.05677" lon="-1.21533">
        <ele>51</ele>
        <time>2023-11-01T20:18:50Z</time>
      </trkpt>
      <trkpt lat="47.05686" lon="-1.21492">
        <ele>51</ele>
        <time>2023-11-01T20:19:29Z</time>
      </trkpt>
      <trkpt lat="47.05675" lon="-1.21427">
        <ele>52</ele>
        <time>2023-11-01T20:20:30Z</time>
      </trkpt>
      <trkpt lat="47.05672" lon="-1.2137">
        <ele>54</ele>
        <time>2023-11-01T20:21:22Z</time>
      </trkpt>
      <trkpt lat="47.05669" lon="-1.21327">
        <ele>56</ele>
        <time>2023-11-01T20:22:01Z</time>
      </trkpt>
      <trkpt lat="47.05648" lon="-1.21299">
        <ele>55</ele>
        <time>2023-11-01T20:22:39Z</time>
      </trkpt>
      <trkpt lat="47.05636" lon="-1.21262">
        <ele>56</ele>
        <time>2023-11-01T20:23:16Z</time>
      </trkpt>
      <trkpt lat="47.05637" lon="-1.21232">
        <ele>57</ele>
        <time>2023-11-01T20:23:44Z</time>
      </trkpt>
      <trkpt lat="47.05647" lon="-1.21206">
        <ele>59</ele>
        <time>2023-11-01T20:24:11Z</time>
      </trkpt>
      <trkpt lat="47.05651" lon="-1.21186">
        <ele>59</ele>
        <time>2023-11-01T20:24:30Z</time>
      </trkpt>
      <trkpt lat="47.05661" lon="-1.21176">
        <ele>60</ele>
        <time>2023-11-01T20:24:46Z</time>
      </trkpt>
      <trkpt lat="47.05672" lon="-1.21139">
        <ele>60</ele>
        <time>2023-11-01T20:25:22Z</time>
      </trkpt>
      <trkpt lat="47.05722" lon="-1.21078">
        <ele>57</ele>
        <time>2023-11-01T20:26:49Z</time>
      </trkpt>
      <trkpt lat="47.0578" lon="-1.2105">
        <ele>56</ele>
        <time>2023-11-01T20:28:11Z</time>
      </trkpt>
      <trkpt lat="47.05827" lon="-1.2108">
        <ele>59</ele>
        <time>2023-11-01T20:29:19Z</time>
      </trkpt>
      <trkpt lat="47.05891" lon="-1.21134">
        <ele>62</ele>
        <time>2023-11-01T20:30:58Z</time>
      </trkpt>
      <trkpt lat="47.05922" lon="-1.21074">
        <ele>61</ele>
        <time>2023-11-01T20:32:06Z</time>
      </trkpt>
      <trkpt lat="47.05954" lon="-1.21012">
        <ele>59</ele>
        <time>2023-11-01T20:33:17Z</time>
      </trkpt>
      <trkpt lat="47.05983" lon="-1.21076">
        <ele>61</ele>
        <time>2023-11-01T20:34:27Z</time>
      </trkpt>
      <trkpt lat="47.06028" lon="-1.21179">
        <ele>63</ele>
        <time>2023-11-01T20:36:18Z</time>
      </trkpt>
      <trkpt lat="47.061" lon="-1.2134">
        <ele>65</ele>
        <time>2023-11-01T20:39:13Z</time>
      </trkpt>
      <trkpt lat="47.06161" lon="-1.21503">
        <ele>65</ele>
        <time>2023-11-01T20:42:02Z</time>
      </trkpt>
      <trkpt lat="47.0621" lon="-1.21681">
        <ele>62</ele>
        <time>2023-11-01T20:44:57Z</time>
      </trkpt>
      <trkpt lat="47.06252" lon="-1.21827">
        <ele>59</ele>
        <time>2023-11-01T20:47:21Z</time>
      </trkpt>
      <trkpt lat="47.06277" lon="-1.21923">
        <ele>58</ele>
        <time>2023-11-01T20:48:54Z</time>
      </trkpt>
      <trkpt lat="47.0631" lon="-1.22009">
        <ele>57</ele>
        <time>2023-11-01T20:50:24Z</time>
      </trkpt>
      <trkpt lat="47.06321" lon="-1.22095">
        <ele>56</ele>
        <time>2023-11-01T20:51:43Z</time>
      </trkpt>
      <trkpt lat="47.06328" lon="-1.22224">
        <ele>56</ele>
        <time>2023-11-01T20:53:41Z</time>
      </trkpt>
      <trkpt lat="47.06347" lon="-1.22299">
        <ele>56</ele>
        <time>2023-11-01T20:54:54Z</time>
      </trkpt>
      <trkpt lat="47.06378" lon="-1.22376">
        <ele>55</ele>
        <time>2023-11-01T20:56:15Z</time>
      </trkpt>
      <trkpt lat="47.06401" lon="-1.22458">
        <ele>54</ele>
        <time>2023-11-01T20:57:36Z</time>
      </trkpt>
      <trkpt lat="47.06435" lon="-1.22413">
        <ele>57</ele>
        <time>2023-11-01T20:58:37Z</time>
      </trkpt>
      <trkpt lat="47.06477" lon="-1.22323">
        <ele>60</ele>
        <time>2023-11-01T21:00:16Z</time>
      </trkpt>
      <trkpt lat="47.06518" lon="-1.22383">
        <ele>60</ele>
        <time>2023-11-01T21:01:33Z</time>
      </trkpt>
      <trkpt lat="47.06561" lon="-1.22288">
        <ele>67</ele>
        <time>2023-11-01T21:03:17Z</time>
      </trkpt>
      <trkpt lat="47.06587" lon="-1.22228">
        <ele>70</ele>
        <time>2023-11-01T21:04:21Z</time>
      </trkpt>
      <trkpt lat="47.06641" lon="-1.22134">
        <ele>69</ele>
        <time>2023-11-01T21:06:13Z</time>
      </trkpt>
      <trkpt lat="47.06712" lon="-1.22018">
        <ele>69</ele>
        <time>2023-11-01T21:08:35Z</time>
      </trkpt>
      <trkpt lat="47.06739" lon="-1.21966">
        <ele>69</ele>
        <time>2023-11-01T21:09:34Z</time>
      </trkpt>
      <trkpt lat="47.06775" lon="-1.21898">
        <ele>68</ele>
        <time>2023-11-01T21:10:53Z</time>
      </trkpt>
      <trkpt lat="47.06812" lon="-1.21945">
        <ele>67</ele>
        <time>2023-11-01T21:11:58Z</time>
      </trkpt>
      <trkpt lat="47.06866" lon="-1.22048">
        <ele>65</ele>
        <time>2023-11-01T21:13:56Z</time>
      </trkpt>
      <trkpt lat="47.06926" lon="-1.22142">
        <ele>63</ele>
        <time>2023-11-01T21:15:53Z</time>
      </trkpt>
      <trkpt lat="47.06921" lon="-1.22284">
        <ele>61</ele>
        <time>2023-11-01T21:18:02Z</time>
      </trkpt>
      <trkpt lat="47.06975" lon="-1.22293">
        <ele>61</ele>
        <time>2023-11-01T21:19:15Z</time>
      </trkpt>
      <trkpt lat="47.07024" lon="-1.22273">
        <ele>61</ele>
        <time>2023-11-01T21:20:23Z</time>
      </trkpt>
      <trkpt lat="47.07078" lon="-1.2223">
        <ele>60</ele>
        <time>2023-11-01T21:21:45Z</time>
      </trkpt>
      <trkpt lat="47.07132" lon="-1.22153">
        <ele>60</ele>
        <time>2023-11-01T21:23:25Z</time>
      </trkpt>
      <trkpt lat="47.07151" lon="-1.22217">
        <ele>58</ele>
        <time>2023-11-01T21:24:29Z</time>
      </trkpt>
      <trkpt lat="47.07167" lon="-1.22269">
        <ele>56</ele>
        <time>2023-11-01T21:25:21Z</time>
      </trkpt>
      <trkpt lat="47.07192" lon="-1.22318">
        <ele>56</ele>
        <time>2023-11-01T21:26:16Z</time>
      </trkpt>
      <trkpt lat="47.07212" lon="-1.22337">
        <ele>55</ele>
        <time>2023-11-01T21:26:48Z</time>
      </trkpt>
      <trkpt lat="47.07222" lon="-1.22325">
        <ele>55</ele>
        <time>2023-11-01T21:27:05Z</time>
      </trkpt>
      <trkpt lat="47.07231" lon="-1.22304">
        <ele>55</ele>
        <time>2023-11-01T21:27:28Z</time>
      </trkpt>
      <trkpt lat="47.0725" lon="-1.22321">
        <ele>54</ele>
        <time>2023-11-01T21:27:58Z</time>
      </trkpt>
      <trkpt lat="47.07271" lon="-1.22372">
        <ele>54</ele>
        <time>2023-11-01T21:28:52Z</time>
      </trkpt>
      <trkpt lat="47.07277" lon="-1.22411">
        <ele>55</ele>
        <time>2023-11-01T21:29:28Z</time>
      </trkpt>
      <trkpt lat="47.07265" lon="-1.22443">
        <ele>54</ele>
        <time>2023-11-01T21:30:01Z</time>
      </trkpt>
      <trkpt lat="47.07268" lon="-1.22472">
        <ele>54</ele>
        <time>2023-11-01T21:30:28Z</time>
      </trkpt>
      <trkpt lat="47.07281" lon="-1.22516">
        <ele>55</ele>
        <time>2023-11-01T21:31:11Z</time>
      </trkpt>
      <trkpt lat="47.0729" lon="-1.22561">
        <ele>55</ele>
        <time>2023-11-01T21:31:54Z</time>
      </trkpt>
      <trkpt lat="47.07294" lon="-1.22638">
        <ele>55</ele>
        <time>2023-11-01T21:33:04Z</time>
      </trkpt>
      <trkpt lat="47.07307" lon="-1.2275">
        <ele>54</ele>
        <time>2023-11-01T21:34:48Z</time>
      </trkpt>
      <trkpt lat="47.07328" lon="-1.22868">
        <ele>54</ele>
        <time>2023-11-01T21:36:38Z</time>
      </trkpt>
      <trkpt lat="47.07382" lon="-1.2302">
        <ele>53</ele>
        <time>2023-11-01T21:39:14Z</time>
      </trkpt>
      <trkpt lat="47.07408" lon="-1.23181">
        <ele>51</ele>
        <time>2023-11-01T21:41:45Z</time>
      </trkpt>
      <trkpt lat="47.07421" lon="-1.23333">
        <ele>50</ele>
        <time>2023-11-01T21:44:04Z</time>
      </trkpt>
      <trkpt lat="47.07428" lon="-1.23496">
        <ele>49</ele>
        <time>2023-11-01T21:46:32Z</time>
      </trkpt>
      <trkpt lat="47.07436" lon="-1.23616">
        <ele>48</ele>
        <time>2023-11-01T21:48:22Z</time>
      </trkpt>
      <trkpt lat="47.07431" lon="-1.23732">
        <ele>47</ele>
        <time>2023-11-01T21:50:07Z</time>
      </trkpt>
      <trkpt lat="47.07427" lon="-1.23835">
        <ele>46</ele>
        <time>2023-11-01T21:51:41Z</time>
      </trkpt>
      <trkpt lat="47.07417" lon="-1.23921">
        <ele>46</ele>
        <time>2023-11-01T21:53:01Z</time>
      </trkpt>
      <trkpt lat="47.07415" lon="-1.23988">
        <ele>46</ele>
        <time>2023-11-01T21:54:01Z</time>
      </trkpt>
      <trkpt lat="47.07399" lon="-1.24074">
        <ele>45</ele>
        <time>2023-11-01T21:55:22Z</time>
      </trkpt>
      <trkpt lat="47.07395" lon="-1.24177">
        <ele>45</ele>
        <time>2023-11-01T21:56:56Z</time>
      </trkpt>
      <trkpt lat="47.07396" lon="-1.24297">
        <ele>43</ele>
        <time>2023-11-01T21:58:45Z</time>
      </trkpt>
      <trkpt lat="47.07392" lon="-1.24378">
        <ele>42</ele>
        <time>2023-11-01T21:59:59Z</time>
      </trkpt>
      <trkpt lat="47.07399" lon="-1.24455">
        <ele>41</ele>
        <time>2023-11-01T22:01:10Z</time>
      </trkpt>
      <trkpt lat="47.07418" lon="-1.24554">
        <ele>43</ele>
        <time>2023-11-01T22:02:43Z</time>
      </trkpt>
      <trkpt lat="47.07431" lon="-1.24621">
        <ele>43</ele>
        <time>2023-11-01T22:03:47Z</time>
      </trkpt>
      <trkpt lat="47.07459" lon="-1.24722">
        <ele>42</ele>
        <time>2023-11-01T22:05:26Z</time>
      </trkpt>
      <trkpt lat="47.07469" lon="-1.24807">
        <ele>40</ele>
        <time>2023-11-01T22:06:44Z</time>
      </trkpt>
      <trkpt lat="47.07477" lon="-1.24859">
        <ele>39</ele>
        <time>2023-11-01T22:07:32Z</time>
      </trkpt>
      <trkpt lat="47.07503" lon="-1.2491">
        <ele>37</ele>
        <time>2023-11-01T22:08:30Z</time>
      </trkpt>
      <trkpt lat="47.07504" lon="-1.2497">
        <ele>35</ele>
        <time>2023-11-01T22:09:25Z</time>
      </trkpt>
      <trkpt lat="47.07524" lon="-1.24992">
        <ele>34</ele>
        <time>2023-11-01T22:09:58Z</time>
      </trkpt>
      <trkpt lat="47.07515" lon="-1.25026">
        <ele>33</ele>
        <time>2023-11-01T22:10:31Z</time>
      </trkpt>
      <trkpt lat="47.07483" lon="-1.25041">
        <ele>32</ele>
        <time>2023-11-01T22:11:16Z</time>
      </trkpt>
      <trkpt lat="47.07459" lon="-1.25074">
        <ele>30</ele>
        <time>2023-11-01T22:12:00Z</time>
      </trkpt>
      <trkpt lat="47.07466" lon="-1.25114">
        <ele>28</ele>
        <time>2023-11-01T22:12:38Z</time>
      </trkpt>
      <trkpt lat="47.07476" lon="-1.25136">
        <ele>27</ele>
        <time>2023-11-01T22:13:02Z</time>
      </trkpt>
      <trkpt lat="47.07499" lon="-1.25182">
        <ele>25</ele>
        <time>2023-11-01T22:13:54Z</time>
      </trkpt>
      <trkpt lat="47.07478" lon="-1.2519">
        <ele>25</ele>
        <time>2023-11-01T22:14:23Z</time>
      </trkpt>
      <trkpt lat="47.07463" lon="-1.25177">
        <ele>25</ele>
        <time>2023-11-01T22:14:46Z</time>
      </trkpt>
      <trkpt lat="47.07451" lon="-1.25156">
        <ele>26</ele>
        <time>2023-11-01T22:15:11Z</time>
      </trkpt>
      <trkpt lat="47.07432" lon="-1.25152">
        <ele>26</ele>
        <time>2023-11-01T22:15:36Z</time>
      </trkpt>
      <trkpt lat="47.07423" lon="-1.25135">
        <ele>27</ele>
        <time>2023-11-01T22:15:56Z</time>
      </trkpt>
      <trkpt lat="47.07422" lon="-1.25116">
        <ele>27</ele>
        <time>2023-11-01T22:16:13Z</time>
      </trkpt>
      <trkpt lat="47.07407" lon="-1.25104">
        <ele>27</ele>
        <time>2023-11-01T22:16:36Z</time>
      </trkpt>
      <trkpt lat="47.07391" lon="-1.25113">
        <ele>26</ele>
        <time>2023-11-01T22:16:59Z</time>
      </trkpt>
      <trkpt lat="47.07373" lon="-1.25145">
        <ele>24</ele>
        <time>2023-11-01T22:17:37Z</time>
      </trkpt>
      <trkpt lat="47.07345" lon="-1.25161">
        <ele>23</ele>
        <time>2023-11-01T22:18:17Z</time>
      </trkpt>
      <trkpt lat="47.07329" lon="-1.25158">
        <ele>23</ele>
        <time>2023-11-01T22:18:38Z</time>
      </trkpt>
      <trkpt lat="47.07312" lon="-1.25174">
        <ele>23</ele>
        <time>2023-11-01T22:19:05Z</time>
      </trkpt>
      <trkpt lat="47.07291" lon="-1.25203">
        <ele>23</ele>
        <time>2023-11-01T22:19:44Z</time>
      </trkpt>
      <trkpt lat="47.0727" lon="-1.25232">
        <ele>22</ele>
        <time>2023-11-01T22:20:22Z</time>
      </trkpt>
      <trkpt lat="47.07249" lon="-1.25254">
        <ele>21</ele>
        <time>2023-11-01T22:20:56Z</time>
      </trkpt>
      <trkpt lat="47.07229" lon="-1.25249">
        <ele>22</ele>
        <time>2023-11-01T22:21:24Z</time>
      </trkpt>
      <trkpt lat="47.07217" lon="-1.25225">
        <ele>22</ele>
        <time>2023-11-01T22:21:51Z</time>
      </trkpt>
      <trkpt lat="47.07201" lon="-1.25194">
        <ele>23</ele>
        <time>2023-11-01T22:22:26Z</time>
      </trkpt>
      <trkpt lat="47.07196" lon="-1.25159">
        <ele>24</ele>
        <time>2023-11-01T22:22:58Z</time>
      </trkpt>
      <trkpt lat="47.07184" lon="-1.25119">
        <ele>24</ele>
        <time>2023-11-01T22:23:38Z</time>
      </trkpt>
      <trkpt lat="47.07201" lon="-1.25087">
        <ele>24</ele>
        <time>2023-11-01T22:24:15Z</time>
      </trkpt>
      <trkpt lat="47.07218" lon="-1.2508">
        <ele>24</ele>
        <time>2023-11-01T22:24:39Z</time>
      </trkpt>
      <trkpt lat="47.07254" lon="-1.25036">
        <ele>26</ele>
        <time>2023-11-01T22:25:41Z</time>
      </trkpt>
      <trkpt lat="47.07244" lon="-1.25005">
        <ele>27</ele>
        <time>2023-11-01T22:26:12Z</time>
      </trkpt>
      <trkpt lat="47.07223" lon="-1.24989">
        <ele>28</ele>
        <time>2023-11-01T22:26:44Z</time>
      </trkpt>
    </trkseg>
  </trk>
</gpx>